sensor_id;sensor_type;location;lat;lon;timestamp;P1;durP1;ratioP1;P2;durP2;ratioP2
23678;SDS011;12016;51.668;6.874;2023-03-01T07:08:45;36.72;;;19.30;;
23678;SDS011;12016;51.668;6.874;2023-03-01T07:14:55;27.73;;;15.80;;
23678;SDS011;12016;51.668;6.874;2023-03-01T07:20:57;23.52;;;13.80;;
23678;SDS011;12016;51.668;6.874;2023-03-01T07:26:58;19.95;;;13.05;;
23678;SDS011;12016;51.668;6.874;2023-03-01T07:33:00;22.65;;;15.30;;
23678;SDS011;12016;51.668;6.874;2023-03-01T07:39:02;20.92;;;14.50;;
23678;SDS011;12016;51.668;6.874;2023-03-01T07:45:04;16.33;;;12.55;;
23678;SDS011;12016;51.668;6.874;2023-03-01T07:51:07;13.68;;;11.00;;
23678;SDS011;12016;51.668;6.874;2023-03-01T07:57:09;15.38;;;12.05;;
23678;SDS011;12016;51.668;6.874;2023-03-01T08:03:11;11.43;;;10.20;;
23678;SDS011;12016;51.668;6.874;2023-03-01T08:09:13;12.90;;;11.20;;
23678;SDS011;12016;51.668;6.874;2023-03-01T08:15:16;11.55;;;10.15;;
23678;SDS011;12016;51.668;6.874;2023-03-01T08:21:18;13.88;;;11.25;;
23678;SDS011;12016;51.668;6.874;2023-03-01T08:27:20;11.02;;;9.85;;
23678;SDS011;12016;51.668;6.874;2023-03-01T08:33:22;12.98;;;10.32;;
23678;SDS011;12016;51.668;6.874;2023-03-01T08:39:23;12.07;;;9.60;;
23678;SDS011;12016;51.668;6.874;2023-03-01T08:45:25;13.00;;;9.75;;
23678;SDS011;12016;51.668;6.874;2023-03-01T08:51:27;10.38;;;9.25;;
23678;SDS011;12016;51.668;6.874;2023-03-01T08:57:30;11.23;;;9.88;;
23678;SDS011;12016;51.668;6.874;2023-03-01T09:03:32;12.68;;;10.32;;
23678;SDS011;12016;51.668;6.874;2023-03-01T09:09:34;11.52;;;9.73;;
23678;SDS011;12016;51.668;6.874;2023-03-01T09:15:36;12.60;;;9.90;;
23678;SDS011;12016;51.668;6.874;2023-03-01T09:21:39;14.25;;;11.85;;
23678;SDS011;12016;51.668;6.874;2023-03-01T09:27:41;10.57;;;9.00;;
23678;SDS011;12016;51.668;6.874;2023-03-01T09:33:45;9.90;;;8.50;;
23678;SDS011;12016;51.668;6.874;2023-03-01T09:39:49;8.98;;;8.07;;
23678;SDS011;12016;51.668;6.874;2023-03-01T09:45:51;10.70;;;8.75;;
23678;SDS011;12016;51.668;6.874;2023-03-01T09:51:58;12.18;;;8.73;;
23678;SDS011;12016;51.668;6.874;2023-03-01T10:04:37;8.98;;;7.93;;
23678;SDS011;12016;51.668;6.874;2023-03-01T10:10:46;8.57;;;7.68;;
23678;SDS011;12016;51.668;6.874;2023-03-01T10:16:57;9.32;;;7.90;;
23678;SDS011;12016;51.668;6.874;2023-03-01T10:23:04;8.90;;;7.78;;
23678;SDS011;12016;51.668;6.874;2023-03-01T10:41:20;5.33;;;4.70;;
23678;SDS011;12016;51.668;6.874;2023-03-01T15:53:32;6.95;;;5.20;;
23678;SDS011;12016;51.668;6.874;2023-03-01T15:59:38;7.88;;;5.65;;
23678;SDS011;12016;51.668;6.874;2023-03-01T16:17:44;7.43;;;5.45;;
23678;SDS011;12016;51.668;6.874;2023-03-01T16:23:55;5.78;;;4.97;;
23678;SDS011;12016;51.668;6.874;2023-03-01T16:29:58;7.22;;;5.35;;
23678;SDS011;12016;51.668;6.874;2023-03-01T16:36:09;8.98;;;5.72;;
23678;SDS011;12016;51.668;6.874;2023-03-01T16:42:13;8.05;;;5.85;;
23678;SDS011;12016;51.668;6.874;2023-03-01T16:48:14;7.03;;;5.53;;
23678;SDS011;12016;51.668;6.874;2023-03-01T16:54:16;6.07;;;5.32;;
23678;SDS011;12016;51.668;6.874;2023-03-01T17:00:18;7.07;;;6.00;;
23678;SDS011;12016;51.668;6.874;2023-03-01T17:06:20;7.55;;;5.55;;
23678;SDS011;12016;51.668;6.874;2023-03-01T17:12:23;6.88;;;5.70;;
23678;SDS011;12016;51.668;6.874;2023-03-01T17:18:25;7.82;;;5.78;;
23678;SDS011;12016;51.668;6.874;2023-03-01T17:24:27;7.43;;;6.03;;
23678;SDS011;12016;51.668;6.874;2023-03-01T17:30:30;6.85;;;5.57;;
23678;SDS011;12016;51.668;6.874;2023-03-01T17:36:32;9.73;;;7.45;;
23678;SDS011;12016;51.668;6.874;2023-03-01T17:42:42;8.13;;;5.72;;
23678;SDS011;12016;51.668;6.874;2023-03-01T17:48:44;6.97;;;5.50;;
23678;SDS011;12016;51.668;6.874;2023-03-01T18:00:48;8.68;;;5.80;;
23678;SDS011;12016;51.668;6.874;2023-03-01T18:06:51;8.00;;;6.30;;
23678;SDS011;12016;51.668;6.874;2023-03-01T18:12:53;7.38;;;5.88;;
23678;SDS011;12016;51.668;6.874;2023-03-01T18:18:55;7.80;;;6.18;;
23678;SDS011;12016;51.668;6.874;2023-03-01T18:24:58;7.63;;;5.90;;
23678;SDS011;12016;51.668;6.874;2023-03-01T18:31:04;8.00;;;5.78;;
23678;SDS011;12016;51.668;6.874;2023-03-01T18:37:14;8.45;;;6.30;;
23678;SDS011;12016;51.668;6.874;2023-03-01T18:43:17;8.60;;;6.30;;
23678;SDS011;12016;51.668;6.874;2023-03-01T18:49:19;7.00;;;5.70;;
23678;SDS011;12016;51.668;6.874;2023-03-01T18:55:21;10.05;;;7.30;;
23678;SDS011;12016;51.668;6.874;2023-03-01T19:01:24;7.93;;;6.03;;
23678;SDS011;12016;51.668;6.874;2023-03-01T19:07:27;7.95;;;6.13;;
23678;SDS011;12016;51.668;6.874;2023-03-01T19:13:29;23.52;;;17.98;;
23678;SDS011;12016;51.668;6.874;2023-03-01T19:19:32;10.15;;;6.80;;
23678;SDS011;12016;51.668;6.874;2023-03-01T19:25:34;8.23;;;5.72;;
23678;SDS011;12016;51.668;6.874;2023-03-01T19:31:36;8.63;;;6.28;;
23678;SDS011;12016;51.668;6.874;2023-03-01T19:37:39;7.75;;;5.50;;
23678;SDS011;12016;51.668;6.874;2023-03-01T19:43:41;7.10;;;5.38;;
23678;SDS011;12016;51.668;6.874;2023-03-01T19:49:44;7.38;;;5.88;;
23678;SDS011;12016;51.668;6.874;2023-03-01T19:55:46;9.05;;;5.93;;
23678;SDS011;12016;51.668;6.874;2023-03-01T20:01:49;7.68;;;5.80;;
23678;SDS011;12016;51.668;6.874;2023-03-01T20:07:54;8.25;;;5.82;;
23678;SDS011;12016;51.668;6.874;2023-03-01T20:13:58;8.25;;;5.88;;
23678;SDS011;12016;51.668;6.874;2023-03-01T20:19:59;9.00;;;5.93;;
23678;SDS011;12016;51.668;6.874;2023-03-01T20:26:05;8.68;;;6.05;;
23678;SDS011;12016;51.668;6.874;2023-03-01T20:32:09;7.00;;;5.90;;
23678;SDS011;12016;51.668;6.874;2023-03-01T20:38:12;8.63;;;6.25;;
23678;SDS011;12016;51.668;6.874;2023-03-01T20:44:22;7.68;;;5.82;;
23678;SDS011;12016;51.668;6.874;2023-03-01T20:50:24;8.93;;;6.18;;
23678;SDS011;12016;51.668;6.874;2023-03-01T20:56:26;12.93;;;9.52;;
23678;SDS011;12016;51.668;6.874;2023-03-01T21:02:35;7.82;;;6.03;;
23678;SDS011;12016;51.668;6.874;2023-03-01T21:09:09;6.90;;;5.57;;
23678;SDS011;12016;51.668;6.874;2023-03-01T21:15:27;7.68;;;5.90;;
23678;SDS011;12016;51.668;6.874;2023-03-01T21:21:30;7.68;;;5.82;;
23678;SDS011;12016;51.668;6.874;2023-03-01T21:27:36;7.45;;;5.40;;
23678;SDS011;12016;51.668;6.874;2023-03-01T21:33:39;8.30;;;5.70;;
23678;SDS011;12016;51.668;6.874;2023-03-01T21:39:46;6.55;;;5.55;;
23678;SDS011;12016;51.668;6.874;2023-03-01T21:45:50;6.45;;;5.43;;
23678;SDS011;12016;51.668;6.874;2023-03-01T21:52:19;7.13;;;5.80;;
23678;SDS011;12016;51.668;6.874;2023-03-01T21:58:22;7.78;;;5.90;;
23678;SDS011;12016;51.668;6.874;2023-03-01T22:04:25;7.22;;;5.78;;
23678;SDS011;12016;51.668;6.874;2023-03-01T22:10:32;7.97;;;5.57;;
23678;SDS011;12016;51.668;6.874;2023-03-01T22:17:01;7.18;;;6.00;;
23678;SDS011;12016;51.668;6.874;2023-03-01T22:23:03;7.60;;;6.00;;
23678;SDS011;12016;51.668;6.874;2023-03-01T22:29:10;8.23;;;6.30;;
23678;SDS011;12016;51.668;6.874;2023-03-01T22:35:14;8.75;;;5.95;;
23678;SDS011;12016;51.668;6.874;2023-03-01T22:41:16;8.07;;;6.03;;
23678;SDS011;12016;51.668;6.874;2023-03-01T22:47:18;8.38;;;5.95;;
23678;SDS011;12016;51.668;6.874;2023-03-01T22:53:20;9.02;;;6.68;;
23678;SDS011;12016;51.668;6.874;2023-03-01T22:59:22;11.48;;;7.60;;
23678;SDS011;12016;51.668;6.874;2023-03-01T23:05:24;8.10;;;6.38;;
23678;SDS011;12016;51.668;6.874;2023-03-01T23:11:26;9.57;;;7.32;;
23678;SDS011;12016;51.668;6.874;2023-03-01T23:17:29;7.93;;;5.97;;
23678;SDS011;12016;51.668;6.874;2023-03-01T23:23:31;9.80;;;7.13;;
23678;SDS011;12016;51.668;6.874;2023-03-01T23:29:33;7.72;;;5.95;;
23678;SDS011;12016;51.668;6.874;2023-03-01T23:35:37;8.18;;;6.55;;
23678;SDS011;12016;51.668;6.874;2023-03-01T23:41:40;8.18;;;6.45;;
23678;SDS011;12016;51.668;6.874;2023-03-01T23:47:42;9.60;;;6.95;;
23678;SDS011;12016;51.668;6.874;2023-03-01T23:53:45;8.57;;;6.80;;
23678;SDS011;12016;51.668;6.874;2023-03-01T23:59:56;7.43;;;5.93;;
